Nearby METAR Reports

 

CYOW - Ottawa Intl, Ontario, Canada
Distance from station: NNW 27km
Updated: 05/26/2022 10:00am
Overcast
Overcast
 Wind from S
Wind: S 13 km/h
Temperature: 18°C
Dew Point: 13°C
Humidity: 73%
Barometer: 1016.3 hPa
Clouds: Overcast
Visibility: 24 km
Cloud details: Mostly cloudy 1707 m
Overcast 2286 m
2022/05/26 14:00 CYOW 261400Z 17007KT 15SM BKN056 OVC075 18/13 A3001 RMK SC6AC2 SLP166 DENSITY ALT 700FT
KMSS - Massena, New York, USA
Distance from station: ESE 54km
Updated: 05/26/2022 9:53am
Mostly cloudy
Mostly cloudy
 Wind from SSW
Wind: SSW 15 km/h
Temperature: 20°C
Dew Point: 9°C
Humidity: 49%
Barometer: 1017.9 hPa
Clouds: Mostly cloudy
Visibility: 16 km
Cloud details: Mostly cloudy 2743 m
2022/05/26 13:53 KMSS 261353Z AUTO 21008KT 10SM BKN090 20/09 A3006 RMK AO2 SLP179 T02000094
KOGS - Ogdensburg Intl, New York, USA
Distance from station: S 48km
Updated: 05/26/2022 10:15am
Clear
Clear
 Wind from SSW
Wind: SSW 30 km/h, Gust: 41 km/h
Temperature: 21°C
Dew Point: 10°C
Humidity: 50%
Barometer: 1016.3 hPa
Clouds: Clear
Visibility: 16 km
2022/05/26 14:15 KOGS 261415Z AUTO 20016G22KT 10SM CLR 21/10 A3001 RMK AO2
 
CXKE - Kemptville, Ontario, Canada
Distance from station: SW 15km
Updated: 05/26/2022 6:00pm

 Wind from ESE
Wind: ESE 4 km/h
Temperature: 21°C
Dew Point: 3°C
Humidity: 31%
2022/05/26 22:00 CXKE 262200Z AUTO 11002KT 21/03 RMK AO1 SLP241 T02110032 56022